sensor_id;sensor_type;location;lat;lon;timestamp;P1;durP1;ratioP1;P2;durP2;ratioP2
48881;SDS011;57063;51.406;-2.402;2023-04-24T00:00:53;5.57;;;3.10;;
48881;SDS011;57063;51.406;-2.402;2023-04-24T00:03:21;4.07;;;2.88;;
48881;SDS011;57063;51.406;-2.402;2023-04-24T00:05:48;3.97;;;2.80;;
48881;SDS011;57063;51.406;-2.402;2023-04-24T00:08:13;5.47;;;3.00;;
48881;SDS011;57063;51.406;-2.402;2023-04-24T00:10:38;3.72;;;2.95;;
48881;SDS011;57063;51.406;-2.402;2023-04-24T00:13:04;5.72;;;2.95;;
48881;SDS011;57063;51.406;-2.402;2023-04-24T00:15:29;6.90;;;3.33;;
48881;SDS011;57063;51.406;-2.402;2023-04-24T00:17:54;3.75;;;2.83;;
48881;SDS011;57063;51.406;-2.402;2023-04-24T00:20:20;4.15;;;3.08;;
48881;SDS011;57063;51.406;-2.402;2023-04-24T00:22:46;2.90;;;2.60;;
48881;SDS011;57063;51.406;-2.402;2023-04-24T00:25:11;3.40;;;3.05;;
48881;SDS011;57063;51.406;-2.402;2023-04-24T00:27:36;3.63;;;2.97;;
48881;SDS011;57063;51.406;-2.402;2023-04-24T00:30:03;7.03;;;2.30;;
48881;SDS011;57063;51.406;-2.402;2023-04-24T00:32:29;3.47;;;2.60;;
48881;SDS011;57063;51.406;-2.402;2023-04-24T00:34:55;3.65;;;2.38;;
48881;SDS011;57063;51.406;-2.402;2023-04-24T00:37:20;3.33;;;2.42;;
48881;SDS011;57063;51.406;-2.402;2023-04-24T00:39:45;3.03;;;2.22;;
48881;SDS011;57063;51.406;-2.402;2023-04-24T00:42:11;3.90;;;2.50;;
48881;SDS011;57063;51.406;-2.402;2023-04-24T00:44:37;3.63;;;2.40;;
48881;SDS011;57063;51.406;-2.402;2023-04-24T00:47:02;3.80;;;3.20;;
48881;SDS011;57063;51.406;-2.402;2023-04-24T00:49:28;2.20;;;2.00;;
48881;SDS011;57063;51.406;-2.402;2023-04-24T00:51:53;6.68;;;2.30;;
48881;SDS011;57063;51.406;-2.402;2023-04-24T00:54:18;5.40;;;2.35;;
48881;SDS011;57063;51.406;-2.402;2023-04-24T00:56:44;3.22;;;2.20;;
48881;SDS011;57063;51.406;-2.402;2023-04-24T00:59:11;2.90;;;2.08;;
48881;SDS011;57063;51.406;-2.402;2023-04-24T01:01:37;3.20;;;2.55;;
48881;SDS011;57063;51.406;-2.402;2023-04-24T01:04:07;2.40;;;1.80;;
48881;SDS011;57063;51.406;-2.402;2023-04-24T01:06:34;3.42;;;2.47;;
48881;SDS011;57063;51.406;-2.402;2023-04-24T01:09:03;6.45;;;2.38;;
48881;SDS011;57063;51.406;-2.402;2023-04-24T01:11:29;3.08;;;2.08;;
48881;SDS011;57063;51.406;-2.402;2023-04-24T01:13:54;3.92;;;2.17;;
48881;SDS011;57063;51.406;-2.402;2023-04-24T01:16:21;2.97;;;2.13;;
48881;SDS011;57063;51.406;-2.402;2023-04-24T01:18:47;3.35;;;2.00;;
48881;SDS011;57063;51.406;-2.402;2023-04-24T01:21:13;3.03;;;2.20;;
48881;SDS011;57063;51.406;-2.402;2023-04-24T01:23:41;2.35;;;1.95;;
48881;SDS011;57063;51.406;-2.402;2023-04-24T01:26:08;2.30;;;1.80;;
48881;SDS011;57063;51.406;-2.402;2023-04-24T01:28:33;3.28;;;2.33;;
48881;SDS011;57063;51.406;-2.402;2023-04-24T01:30:59;2.58;;;2.13;;
48881;SDS011;57063;51.406;-2.402;2023-04-24T01:33:24;4.47;;;2.55;;
48881;SDS011;57063;51.406;-2.402;2023-04-24T01:35:50;3.38;;;2.13;;
48881;SDS011;57063;51.406;-2.402;2023-04-24T01:38:16;2.15;;;1.95;;
48881;SDS011;57063;51.406;-2.402;2023-04-24T01:40:41;2.22;;;1.88;;
48881;SDS011;57063;51.406;-2.402;2023-04-24T01:43:06;3.22;;;2.08;;
48881;SDS011;57063;51.406;-2.402;2023-04-24T01:45:32;4.40;;;1.88;;
48881;SDS011;57063;51.406;-2.402;2023-04-24T01:47:57;2.80;;;1.83;;
48881;SDS011;57063;51.406;-2.402;2023-04-24T01:50:24;5.32;;;1.88;;
48881;SDS011;57063;51.406;-2.402;2023-04-24T01:52:49;2.90;;;1.85;;
48881;SDS011;57063;51.406;-2.402;2023-04-24T01:55:15;3.28;;;2.25;;
48881;SDS011;57063;51.406;-2.402;2023-04-24T01:57:40;2.75;;;2.20;;
48881;SDS011;57063;51.406;-2.402;2023-04-24T02:00:06;2.33;;;2.05;;
48881;SDS011;57063;51.406;-2.402;2023-04-24T02:02:32;2.30;;;2.00;;
48881;SDS011;57063;51.406;-2.402;2023-04-24T02:04:58;4.53;;;1.92;;
48881;SDS011;57063;51.406;-2.402;2023-04-24T02:07:23;4.07;;;2.00;;
48881;SDS011;57063;51.406;-2.402;2023-04-24T02:09:49;2.00;;;1.65;;
48881;SDS011;57063;51.406;-2.402;2023-04-24T02:12:14;2.00;;;1.80;;
48881;SDS011;57063;51.406;-2.402;2023-04-24T02:14:42;3.50;;;2.13;;
48881;SDS011;57063;51.406;-2.402;2023-04-24T02:17:08;3.25;;;1.92;;
48881;SDS011;57063;51.406;-2.402;2023-04-24T02:19:33;3.03;;;2.03;;
48881;SDS011;57063;51.406;-2.402;2023-04-24T02:22:00;4.20;;;2.00;;
48881;SDS011;57063;51.406;-2.402;2023-04-24T02:24:25;2.53;;;2.08;;
48881;SDS011;57063;51.406;-2.402;2023-04-24T02:26:51;2.15;;;1.65;;
48881;SDS011;57063;51.406;-2.402;2023-04-24T02:29:16;2.30;;;1.77;;
48881;SDS011;57063;51.406;-2.402;2023-04-24T02:31:41;5.50;;;1.80;;
48881;SDS011;57063;51.406;-2.402;2023-04-24T02:34:07;2.67;;;1.83;;
48881;SDS011;57063;51.406;-2.402;2023-04-24T02:36:32;3.33;;;2.03;;
48881;SDS011;57063;51.406;-2.402;2023-04-24T02:38:57;3.17;;;2.13;;
48881;SDS011;57063;51.406;-2.402;2023-04-24T02:41:23;4.75;;;2.08;;
48881;SDS011;57063;51.406;-2.402;2023-04-24T02:43:48;2.03;;;1.67;;
48881;SDS011;57063;51.406;-2.402;2023-04-24T02:46:14;2.50;;;1.70;;
48881;SDS011;57063;51.406;-2.402;2023-04-24T02:48:39;4.63;;;2.10;;
48881;SDS011;57063;51.406;-2.402;2023-04-24T02:51:04;5.78;;;2.00;;
48881;SDS011;57063;51.406;-2.402;2023-04-24T02:53:31;3.42;;;2.22;;
48881;SDS011;57063;51.406;-2.402;2023-04-24T02:55:56;6.70;;;2.20;;
48881;SDS011;57063;51.406;-2.402;2023-04-24T02:58:22;3.50;;;2.22;;
48881;SDS011;57063;51.406;-2.402;2023-04-24T03:00:47;3.05;;;2.10;;
48881;SDS011;57063;51.406;-2.402;2023-04-24T03:03:13;4.10;;;2.17;;
48881;SDS011;57063;51.406;-2.402;2023-04-24T03:05:38;3.45;;;2.10;;
48881;SDS011;57063;51.406;-2.402;2023-04-24T03:08:04;2.28;;;1.85;;
48881;SDS011;57063;51.406;-2.402;2023-04-24T03:10:30;2.03;;;1.80;;
48881;SDS011;57063;51.406;-2.402;2023-04-24T03:12:55;4.47;;;2.45;;
48881;SDS011;57063;51.406;-2.402;2023-04-24T03:15:20;2.85;;;2.00;;
48881;SDS011;57063;51.406;-2.402;2023-04-24T03:17:46;3.15;;;2.05;;
48881;SDS011;57063;51.406;-2.402;2023-04-24T03:20:11;3.60;;;2.28;;
48881;SDS011;57063;51.406;-2.402;2023-04-24T03:22:37;6.00;;;2.50;;
48881;SDS011;57063;51.406;-2.402;2023-04-24T03:25:02;3.75;;;2.25;;
48881;SDS011;57063;51.406;-2.402;2023-04-24T03:27:28;3.33;;;2.25;;
48881;SDS011;57063;51.406;-2.402;2023-04-24T03:29:53;5.63;;;2.10;;
48881;SDS011;57063;51.406;-2.402;2023-04-24T03:32:23;4.70;;;2.28;;
48881;SDS011;57063;51.406;-2.402;2023-04-24T03:34:49;2.70;;;2.05;;
48881;SDS011;57063;51.406;-2.402;2023-04-24T03:37:15;2.63;;;2.22;;
48881;SDS011;57063;51.406;-2.402;2023-04-24T03:39:41;4.53;;;2.50;;
48881;SDS011;57063;51.406;-2.402;2023-04-24T03:42:06;3.45;;;2.30;;
48881;SDS011;57063;51.406;-2.402;2023-04-24T03:44:33;2.83;;;2.05;;
48881;SDS011;57063;51.406;-2.402;2023-04-24T03:46:58;2.92;;;2.00;;
48881;SDS011;57063;51.406;-2.402;2023-04-24T03:49:24;4.68;;;2.38;;
48881;SDS011;57063;51.406;-2.402;2023-04-24T03:51:49;3.15;;;1.90;;
48881;SDS011;57063;51.406;-2.402;2023-04-24T03:54:15;2.47;;;1.95;;
48881;SDS011;57063;51.406;-2.402;2023-04-24T03:56:41;2.45;;;1.67;;
48881;SDS011;57063;51.406;-2.402;2023-04-24T03:59:06;2.97;;;2.08;;
48881;SDS011;57063;51.406;-2.402;2023-04-24T04:01:31;2.92;;;1.85;;
48881;SDS011;57063;51.406;-2.402;2023-04-24T04:03:57;3.22;;;1.80;;
48881;SDS011;57063;51.406;-2.402;2023-04-24T04:06:22;3.13;;;1.88;;
48881;SDS011;57063;51.406;-2.402;2023-04-24T04:08:47;2.58;;;1.90;;
48881;SDS011;57063;51.406;-2.402;2023-04-24T04:11:13;2.85;;;2.22;;
48881;SDS011;57063;51.406;-2.402;2023-04-24T04:13:38;3.35;;;2.15;;
48881;SDS011;57063;51.406;-2.402;2023-04-24T04:16:04;2.70;;;2.03;;
48881;SDS011;57063;51.406;-2.402;2023-04-24T04:18:29;3.92;;;2.15;;
48881;SDS011;57063;51.406;-2.402;2023-04-24T04:20:55;2.38;;;2.05;;
48881;SDS011;57063;51.406;-2.402;2023-04-24T04:23:21;2.80;;;1.92;;
48881;SDS011;57063;51.406;-2.402;2023-04-24T04:25:47;4.15;;;2.30;;
48881;SDS011;57063;51.406;-2.402;2023-04-24T04:28:12;2.75;;;1.92;;
48881;SDS011;57063;51.406;-2.402;2023-04-24T04:30:38;2.78;;;2.10;;
48881;SDS011;57063;51.406;-2.402;2023-04-24T04:33:03;2.92;;;2.25;;
48881;SDS011;57063;51.406;-2.402;2023-04-24T04:35:28;7.43;;;2.70;;
48881;SDS011;57063;51.406;-2.402;2023-04-24T04:37:54;3.05;;;2.10;;
48881;SDS011;57063;51.406;-2.402;2023-04-24T04:40:19;2.00;;;1.80;;
48881;SDS011;57063;51.406;-2.402;2023-04-24T04:42:44;3.05;;;1.88;;
48881;SDS011;57063;51.406;-2.402;2023-04-24T04:45:11;3.13;;;1.98;;
48881;SDS011;57063;51.406;-2.402;2023-04-24T04:47:38;3.10;;;1.90;;
48881;SDS011;57063;51.406;-2.402;2023-04-24T04:50:04;2.17;;;1.90;;
48881;SDS011;57063;51.406;-2.402;2023-04-24T04:52:30;2.15;;;1.88;;
48881;SDS011;57063;51.406;-2.402;2023-04-24T04:54:56;3.35;;;2.10;;
48881;SDS011;57063;51.406;-2.402;2023-04-24T04:57:21;3.53;;;2.25;;
48881;SDS011;57063;51.406;-2.402;2023-04-24T04:59:46;4.13;;;2.63;;
48881;SDS011;57063;51.406;-2.402;2023-04-24T05:02:12;2.35;;;1.92;;
48881;SDS011;57063;51.406;-2.402;2023-04-24T05:04:37;3.03;;;2.05;;
48881;SDS011;57063;51.406;-2.402;2023-04-24T05:07:03;3.88;;;2.17;;
48881;SDS011;57063;51.406;-2.402;2023-04-24T05:09:28;3.05;;;1.73;;
48881;SDS011;57063;51.406;-2.402;2023-04-24T05:11:54;3.05;;;2.15;;
48881;SDS011;57063;51.406;-2.402;2023-04-24T05:14:20;2.35;;;1.95;;
48881;SDS011;57063;51.406;-2.402;2023-04-24T05:16:46;3.03;;;2.08;;
48881;SDS011;57063;51.406;-2.402;2023-04-24T05:19:12;2.97;;;1.90;;
48881;SDS011;57063;51.406;-2.402;2023-04-24T05:21:38;3.53;;;2.08;;
48881;SDS011;57063;51.406;-2.402;2023-04-24T05:24:04;3.85;;;2.30;;
48881;SDS011;57063;51.406;-2.402;2023-04-24T05:26:30;3.50;;;2.35;;
48881;SDS011;57063;51.406;-2.402;2023-04-24T05:28:55;2.55;;;1.88;;
48881;SDS011;57063;51.406;-2.402;2023-04-24T05:31:21;2.30;;;2.08;;
48881;SDS011;57063;51.406;-2.402;2023-04-24T05:33:46;2.72;;;1.92;;
48881;SDS011;57063;51.406;-2.402;2023-04-24T05:36:11;5.00;;;2.22;;
48881;SDS011;57063;51.406;-2.402;2023-04-24T05:38:37;3.70;;;2.20;;
48881;SDS011;57063;51.406;-2.402;2023-04-24T05:41:03;4.60;;;2.88;;
48881;SDS011;57063;51.406;-2.402;2023-04-24T05:43:28;3.92;;;1.80;;
48881;SDS011;57063;51.406;-2.402;2023-04-24T05:45:53;3.17;;;1.90;;
48881;SDS011;57063;51.406;-2.402;2023-04-24T05:48:19;3.92;;;1.85;;
48881;SDS011;57063;51.406;-2.402;2023-04-24T05:50:44;2.42;;;1.98;;
48881;SDS011;57063;51.406;-2.402;2023-04-24T05:53:10;1.88;;;1.67;;
48881;SDS011;57063;51.406;-2.402;2023-04-24T05:55:35;3.03;;;2.00;;
48881;SDS011;57063;51.406;-2.402;2023-04-24T05:58:01;2.50;;;1.85;;
48881;SDS011;57063;51.406;-2.402;2023-04-24T06:00:27;2.47;;;1.63;;
48881;SDS011;57063;51.406;-2.402;2023-04-24T06:02:53;1.90;;;1.70;;
48881;SDS011;57063;51.406;-2.402;2023-04-24T06:05:19;5.47;;;2.67;;
48881;SDS011;57063;51.406;-2.402;2023-04-24T06:07:44;4.60;;;2.17;;
48881;SDS011;57063;51.406;-2.402;2023-04-24T06:10:10;5.28;;;1.83;;
48881;SDS011;57063;51.406;-2.402;2023-04-24T06:12:35;3.95;;;2.38;;
48881;SDS011;57063;51.406;-2.402;2023-04-24T06:15:01;6.97;;;2.65;;
48881;SDS011;57063;51.406;-2.402;2023-04-24T06:17:27;8.00;;;2.40;;
48881;SDS011;57063;51.406;-2.402;2023-04-24T06:19:53;6.22;;;2.88;;
48881;SDS011;57063;51.406;-2.402;2023-04-24T06:22:18;3.95;;;2.20;;
48881;SDS011;57063;51.406;-2.402;2023-04-24T06:24:43;5.78;;;2.60;;
48881;SDS011;57063;51.406;-2.402;2023-04-24T06:27:09;8.32;;;2.63;;
48881;SDS011;57063;51.406;-2.402;2023-04-24T06:29:35;7.15;;;2.50;;
48881;SDS011;57063;51.406;-2.402;2023-04-24T06:32:01;8.15;;;2.45;;
48881;SDS011;57063;51.406;-2.402;2023-04-24T06:34:26;4.57;;;2.05;;
48881;SDS011;57063;51.406;-2.402;2023-04-24T06:36:52;4.10;;;2.65;;
48881;SDS011;57063;51.406;-2.402;2023-04-24T06:39:17;8.80;;;3.10;;
48881;SDS011;57063;51.406;-2.402;2023-04-24T06:41:42;5.82;;;2.97;;
48881;SDS011;57063;51.406;-2.402;2023-04-24T06:44:08;3.70;;;2.08;;
48881;SDS011;57063;51.406;-2.402;2023-04-24T06:46:33;7.93;;;2.05;;
48881;SDS011;57063;51.406;-2.402;2023-04-24T06:49:00;3.78;;;1.90;;
48881;SDS011;57063;51.406;-2.402;2023-04-24T06:51:26;5.10;;;2.28;;
48881;SDS011;57063;51.406;-2.402;2023-04-24T06:53:52;3.13;;;1.90;;
48881;SDS011;57063;51.406;-2.402;2023-04-24T06:56:18;6.57;;;1.75;;
48881;SDS011;57063;51.406;-2.402;2023-04-24T06:58:45;3.45;;;1.98;;
48881;SDS011;57063;51.406;-2.402;2023-04-24T07:01:10;6.25;;;2.08;;
48881;SDS011;57063;51.406;-2.402;2023-04-24T07:03:36;5.18;;;2.08;;
48881;SDS011;57063;51.406;-2.402;2023-04-24T07:06:01;9.77;;;2.97;;
48881;SDS011;57063;51.406;-2.402;2023-04-24T07:08:28;8.02;;;2.20;;
48881;SDS011;57063;51.406;-2.402;2023-04-24T07:10:55;5.00;;;2.85;;
48881;SDS011;57063;51.406;-2.402;2023-04-24T07:13:21;6.95;;;2.70;;
48881;SDS011;57063;51.406;-2.402;2023-04-24T07:15:46;3.08;;;2.50;;
48881;SDS011;57063;51.406;-2.402;2023-04-24T07:18:13;4.28;;;1.90;;
48881;SDS011;57063;51.406;-2.402;2023-04-24T07:20:39;5.43;;;2.30;;
48881;SDS011;57063;51.406;-2.402;2023-04-24T07:23:04;6.00;;;3.53;;
48881;SDS011;57063;51.406;-2.402;2023-04-24T07:25:30;3.63;;;2.67;;
48881;SDS011;57063;51.406;-2.402;2023-04-24T07:27:56;4.47;;;2.08;;
48881;SDS011;57063;51.406;-2.402;2023-04-24T07:30:21;5.75;;;2.20;;
48881;SDS011;57063;51.406;-2.402;2023-04-24T07:32:47;5.75;;;2.28;;
48881;SDS011;57063;51.406;-2.402;2023-04-24T07:35:12;3.40;;;2.10;;
48881;SDS011;57063;51.406;-2.402;2023-04-24T07:37:37;3.55;;;2.28;;
48881;SDS011;57063;51.406;-2.402;2023-04-24T07:40:03;6.65;;;2.25;;
48881;SDS011;57063;51.406;-2.402;2023-04-24T07:42:29;3.22;;;2.30;;
48881;SDS011;57063;51.406;-2.402;2023-04-24T07:44:59;5.47;;;2.33;;
48881;SDS011;57063;51.406;-2.402;2023-04-24T07:47:24;6.25;;;2.60;;
48881;SDS011;57063;51.406;-2.402;2023-04-24T07:49:50;3.10;;;2.00;;
48881;SDS011;57063;51.406;-2.402;2023-04-24T07:52:16;4.25;;;2.47;;
48881;SDS011;57063;51.406;-2.402;2023-04-24T07:54:41;3.70;;;2.40;;
48881;SDS011;57063;51.406;-2.402;2023-04-24T07:57:07;4.18;;;2.30;;
48881;SDS011;57063;51.406;-2.402;2023-04-24T07:59:33;3.13;;;2.15;;
48881;SDS011;57063;51.406;-2.402;2023-04-24T08:01:59;5.88;;;1.98;;
48881;SDS011;57063;51.406;-2.402;2023-04-24T08:04:26;5.95;;;2.00;;
48881;SDS011;57063;51.406;-2.402;2023-04-24T08:06:51;4.05;;;1.73;;
48881;SDS011;57063;51.406;-2.402;2023-04-24T08:09:17;6.35;;;2.10;;
48881;SDS011;57063;51.406;-2.402;2023-04-24T08:11:42;2.33;;;1.48;;
48881;SDS011;57063;51.406;-2.402;2023-04-24T08:14:08;4.47;;;1.60;;
48881;SDS011;57063;51.406;-2.402;2023-04-24T08:16:34;3.47;;;2.05;;
48881;SDS011;57063;51.406;-2.402;2023-04-24T08:19:00;2.45;;;1.83;;
48881;SDS011;57063;51.406;-2.402;2023-04-24T08:21:25;3.00;;;1.70;;
48881;SDS011;57063;51.406;-2.402;2023-04-24T08:23:52;1.95;;;1.60;;
48881;SDS011;57063;51.406;-2.402;2023-04-24T08:26:17;3.75;;;1.80;;
48881;SDS011;57063;51.406;-2.402;2023-04-24T08:28:42;3.03;;;2.58;;
48881;SDS011;57063;51.406;-2.402;2023-04-24T08:31:08;5.10;;;2.10;;
48881;SDS011;57063;51.406;-2.402;2023-04-24T08:33:33;4.05;;;2.28;;
48881;SDS011;57063;51.406;-2.402;2023-04-24T08:36:02;2.65;;;1.70;;
48881;SDS011;57063;51.406;-2.402;2023-04-24T08:38:29;1.95;;;1.75;;
48881;SDS011;57063;51.406;-2.402;2023-04-24T08:40:56;2.63;;;1.50;;
48881;SDS011;57063;51.406;-2.402;2023-04-24T08:43:23;5.13;;;1.90;;
48881;SDS011;57063;51.406;-2.402;2023-04-24T08:45:49;13.90;;;2.10;;
48881;SDS011;57063;51.406;-2.402;2023-04-24T08:48:15;6.18;;;2.80;;
48881;SDS011;57063;51.406;-2.402;2023-04-24T08:50:41;5.20;;;1.70;;
48881;SDS011;57063;51.406;-2.402;2023-04-24T08:53:09;3.28;;;2.50;;
48881;SDS011;57063;51.406;-2.402;2023-04-24T08:55:35;3.88;;;1.98;;
48881;SDS011;57063;51.406;-2.402;2023-04-24T08:58:02;4.32;;;1.88;;
48881;SDS011;57063;51.406;-2.402;2023-04-24T09:00:28;3.92;;;2.13;;
48881;SDS011;57063;51.406;-2.402;2023-04-24T09:02:54;4.03;;;2.45;;
48881;SDS011;57063;51.406;-2.402;2023-04-24T09:05:21;4.82;;;2.15;;
48881;SDS011;57063;51.406;-2.402;2023-04-24T09:07:55;6.88;;;2.20;;
48881;SDS011;57063;51.406;-2.402;2023-04-24T09:10:22;4.28;;;2.13;;
48881;SDS011;57063;51.406;-2.402;2023-04-24T09:12:49;5.78;;;2.30;;
48881;SDS011;57063;51.406;-2.402;2023-04-24T09:15:15;4.28;;;2.35;;
48881;SDS011;57063;51.406;-2.402;2023-04-24T09:17:41;5.38;;;2.40;;
48881;SDS011;57063;51.406;-2.402;2023-04-24T09:20:07;3.65;;;2.47;;
48881;SDS011;57063;51.406;-2.402;2023-04-24T09:22:33;3.00;;;2.20;;
48881;SDS011;57063;51.406;-2.402;2023-04-24T09:25:05;3.53;;;2.33;;
48881;SDS011;57063;51.406;-2.402;2023-04-24T09:27:32;2.88;;;2.00;;
48881;SDS011;57063;51.406;-2.402;2023-04-24T09:29:58;4.82;;;2.20;;
48881;SDS011;57063;51.406;-2.402;2023-04-24T09:32:25;14.93;;;2.70;;
48881;SDS011;57063;51.406;-2.402;2023-04-24T09:35:04;5.70;;;2.30;;
48881;SDS011;57063;51.406;-2.402;2023-04-24T09:37:41;4.72;;;2.78;;
48881;SDS011;57063;51.406;-2.402;2023-04-24T09:42:37;3.95;;;2.33;;
48881;SDS011;57063;51.406;-2.402;2023-04-24T09:45:03;4.93;;;2.00;;
48881;SDS011;57063;51.406;-2.402;2023-04-24T09:47:35;2.83;;;2.25;;
48881;SDS011;57063;51.406;-2.402;2023-04-24T09:50:15;3.17;;;2.10;;
48881;SDS011;57063;51.406;-2.402;2023-04-24T09:52:42;3.40;;;1.58;;
48881;SDS011;57063;51.406;-2.402;2023-04-24T09:55:18;2.05;;;1.85;;
48881;SDS011;57063;51.406;-2.402;2023-04-24T09:57:51;7.05;;;3.28;;
48881;SDS011;57063;51.406;-2.402;2023-04-24T10:00:18;5.85;;;2.47;;
48881;SDS011;57063;51.406;-2.402;2023-04-24T10:02:58;5.25;;;2.47;;
48881;SDS011;57063;51.406;-2.402;2023-04-24T10:05:26;5.93;;;1.90;;
48881;SDS011;57063;51.406;-2.402;2023-04-24T10:10:31;9.27;;;2.10;;
48881;SDS011;57063;51.406;-2.402;2023-04-24T10:12:59;3.58;;;1.98;;
48881;SDS011;57063;51.406;-2.402;2023-04-24T10:15:25;6.40;;;2.17;;
48881;SDS011;57063;51.406;-2.402;2023-04-24T10:17:51;6.40;;;2.60;;
48881;SDS011;57063;51.406;-2.402;2023-04-24T10:20:23;2.88;;;2.10;;
48881;SDS011;57063;51.406;-2.402;2023-04-24T10:22:51;3.10;;;2.40;;
48881;SDS011;57063;51.406;-2.402;2023-04-24T10:25:18;4.75;;;2.72;;
48881;SDS011;57063;51.406;-2.402;2023-04-24T10:27:45;3.67;;;2.28;;
48881;SDS011;57063;51.406;-2.402;2023-04-24T10:30:11;3.83;;;2.22;;
48881;SDS011;57063;51.406;-2.402;2023-04-24T10:32:37;3.97;;;2.40;;
48881;SDS011;57063;51.406;-2.402;2023-04-24T10:35:03;17.15;;;2.28;;
48881;SDS011;57063;51.406;-2.402;2023-04-24T10:37:29;4.20;;;2.40;;
48881;SDS011;57063;51.406;-2.402;2023-04-24T10:40:01;5.85;;;2.38;;
48881;SDS011;57063;51.406;-2.402;2023-04-24T10:42:27;7.55;;;2.28;;
48881;SDS011;57063;51.406;-2.402;2023-04-24T10:44:53;5.60;;;2.45;;
48881;SDS011;57063;51.406;-2.402;2023-04-24T10:47:19;4.50;;;2.42;;
48881;SDS011;57063;51.406;-2.402;2023-04-24T10:49:44;5.32;;;2.40;;
48881;SDS011;57063;51.406;-2.402;2023-04-24T10:52:10;6.65;;;2.83;;
48881;SDS011;57063;51.406;-2.402;2023-04-24T10:59:47;2.85;;;2.10;;
48881;SDS011;57063;51.406;-2.402;2023-04-24T11:02:14;3.72;;;2.40;;
48881;SDS011;57063;51.406;-2.402;2023-04-24T11:04:43;2.72;;;2.20;;
48881;SDS011;57063;51.406;-2.402;2023-04-24T11:07:09;7.18;;;2.30;;
48881;SDS011;57063;51.406;-2.402;2023-04-24T11:09:35;2.63;;;2.10;;
48881;SDS011;57063;51.406;-2.402;2023-04-24T11:14:42;5.78;;;2.42;;
48881;SDS011;57063;51.406;-2.402;2023-04-24T11:17:28;10.85;;;2.45;;
48881;SDS011;57063;51.406;-2.402;2023-04-24T11:20:06;4.57;;;2.80;;
48881;SDS011;57063;51.406;-2.402;2023-04-24T11:22:34;8.63;;;2.92;;
48881;SDS011;57063;51.406;-2.402;2023-04-24T11:25:01;8.48;;;2.38;;
48881;SDS011;57063;51.406;-2.402;2023-04-24T11:27:32;3.92;;;2.20;;
48881;SDS011;57063;51.406;-2.402;2023-04-24T11:30:07;13.85;;;3.33;;
48881;SDS011;57063;51.406;-2.402;2023-04-24T11:35:05;7.47;;;2.83;;
48881;SDS011;57063;51.406;-2.402;2023-04-24T11:37:36;13.18;;;3.38;;
48881;SDS011;57063;51.406;-2.402;2023-04-24T11:40:03;9.95;;;3.17;;
48881;SDS011;57063;51.406;-2.402;2023-04-24T11:42:36;13.77;;;3.03;;
48881;SDS011;57063;51.406;-2.402;2023-04-24T11:47:41;13.02;;;2.72;;
48881;SDS011;57063;51.406;-2.402;2023-04-24T11:50:09;17.65;;;2.88;;
48881;SDS011;57063;51.406;-2.402;2023-04-24T11:52:39;7.13;;;2.30;;
48881;SDS011;57063;51.406;-2.402;2023-04-24T11:55:06;11.20;;;3.67;;
48881;SDS011;57063;51.406;-2.402;2023-04-24T11:57:58;14.43;;;2.88;;
48881;SDS011;57063;51.406;-2.402;2023-04-24T12:00:25;18.00;;;4.43;;
48881;SDS011;57063;51.406;-2.402;2023-04-24T12:03:04;12.07;;;4.18;;
48881;SDS011;57063;51.406;-2.402;2023-04-24T12:05:30;13.65;;;4.20;;
48881;SDS011;57063;51.406;-2.402;2023-04-24T12:07:56;14.18;;;3.90;;
48881;SDS011;57063;51.406;-2.402;2023-04-24T12:10:25;6.65;;;3.30;;
48881;SDS011;57063;51.406;-2.402;2023-04-24T12:12:52;9.55;;;3.10;;
48881;SDS011;57063;51.406;-2.402;2023-04-24T12:15:18;29.05;;;3.88;;
48881;SDS011;57063;51.406;-2.402;2023-04-24T12:17:45;25.02;;;3.53;;
48881;SDS011;57063;51.406;-2.402;2023-04-24T12:20:11;10.95;;;3.22;;
48881;SDS011;57063;51.406;-2.402;2023-04-24T12:25:10;14.10;;;2.90;;
48881;SDS011;57063;51.406;-2.402;2023-04-24T12:27:36;6.60;;;2.97;;
48881;SDS011;57063;51.406;-2.402;2023-04-24T12:30:03;15.07;;;3.03;;
48881;SDS011;57063;51.406;-2.402;2023-04-24T12:32:30;10.90;;;2.47;;
48881;SDS011;57063;51.406;-2.402;2023-04-24T12:34:56;13.50;;;2.78;;
48881;SDS011;57063;51.406;-2.402;2023-04-24T12:37:23;10.68;;;2.70;;
48881;SDS011;57063;51.406;-2.402;2023-04-24T12:40:00;12.18;;;3.72;;
48881;SDS011;57063;51.406;-2.402;2023-04-24T12:42:31;13.57;;;2.63;;
48881;SDS011;57063;51.406;-2.402;2023-04-24T12:45:03;9.20;;;2.22;;
48881;SDS011;57063;51.406;-2.402;2023-04-24T12:47:31;18.75;;;3.25;;
48881;SDS011;57063;51.406;-2.402;2023-04-24T12:49:57;7.05;;;2.80;;
48881;SDS011;57063;51.406;-2.402;2023-04-24T12:52:23;14.20;;;3.30;;
48881;SDS011;57063;51.406;-2.402;2023-04-24T12:54:49;7.97;;;2.72;;
48881;SDS011;57063;51.406;-2.402;2023-04-24T12:57:16;6.45;;;2.45;;
48881;SDS011;57063;51.406;-2.402;2023-04-24T12:59:41;4.78;;;2.38;;
48881;SDS011;57063;51.406;-2.402;2023-04-24T13:02:07;4.40;;;2.22;;
48881;SDS011;57063;51.406;-2.402;2023-04-24T13:04:34;6.05;;;2.38;;
48881;SDS011;57063;51.406;-2.402;2023-04-24T13:06:59;4.68;;;2.03;;
48881;SDS011;57063;51.406;-2.402;2023-04-24T13:09:24;8.85;;;2.72;;
48881;SDS011;57063;51.406;-2.402;2023-04-24T13:11:50;4.95;;;1.83;;
48881;SDS011;57063;51.406;-2.402;2023-04-24T13:14:15;6.00;;;2.15;;
48881;SDS011;57063;51.406;-2.402;2023-04-24T13:16:41;6.63;;;2.47;;
48881;SDS011;57063;51.406;-2.402;2023-04-24T13:19:06;3.90;;;2.08;;
48881;SDS011;57063;51.406;-2.402;2023-04-24T13:21:31;4.63;;;2.28;;
48881;SDS011;57063;51.406;-2.402;2023-04-24T13:23:57;7.70;;;2.28;;
48881;SDS011;57063;51.406;-2.402;2023-04-24T13:26:22;9.45;;;1.90;;
48881;SDS011;57063;51.406;-2.402;2023-04-24T13:28:48;6.90;;;2.30;;
48881;SDS011;57063;51.406;-2.402;2023-04-24T13:31:13;5.45;;;1.92;;
48881;SDS011;57063;51.406;-2.402;2023-04-24T13:33:39;6.32;;;2.08;;
48881;SDS011;57063;51.406;-2.402;2023-04-24T13:36:05;16.10;;;2.63;;
48881;SDS011;57063;51.406;-2.402;2023-04-24T13:38:30;18.02;;;2.42;;
48881;SDS011;57063;51.406;-2.402;2023-04-24T13:40:55;12.80;;;2.30;;
48881;SDS011;57063;51.406;-2.402;2023-04-24T13:43:21;7.82;;;2.17;;
48881;SDS011;57063;51.406;-2.402;2023-04-24T13:45:46;7.32;;;2.50;;
48881;SDS011;57063;51.406;-2.402;2023-04-24T13:48:12;9.20;;;2.00;;
48881;SDS011;57063;51.406;-2.402;2023-04-24T13:50:40;10.48;;;2.50;;
48881;SDS011;57063;51.406;-2.402;2023-04-24T13:53:06;13.32;;;2.50;;
48881;SDS011;57063;51.406;-2.402;2023-04-24T13:55:31;17.30;;;2.97;;
48881;SDS011;57063;51.406;-2.402;2023-04-24T13:57:57;12.48;;;2.30;;
48881;SDS011;57063;51.406;-2.402;2023-04-24T14:00:22;13.27;;;2.63;;
48881;SDS011;57063;51.406;-2.402;2023-04-24T14:02:48;15.43;;;2.63;;
48881;SDS011;57063;51.406;-2.402;2023-04-24T14:05:13;11.27;;;2.78;;
48881;SDS011;57063;51.406;-2.402;2023-04-24T14:07:40;7.45;;;3.05;;
48881;SDS011;57063;51.406;-2.402;2023-04-24T14:10:06;17.15;;;3.65;;
48881;SDS011;57063;51.406;-2.402;2023-04-24T14:12:32;19.10;;;3.17;;
48881;SDS011;57063;51.406;-2.402;2023-04-24T14:14:58;10.15;;;3.53;;
48881;SDS011;57063;51.406;-2.402;2023-04-24T14:17:24;12.55;;;3.55;;
48881;SDS011;57063;51.406;-2.402;2023-04-24T14:19:49;16.15;;;3.53;;
48881;SDS011;57063;51.406;-2.402;2023-04-24T14:22:16;19.02;;;3.47;;
48881;SDS011;57063;51.406;-2.402;2023-04-24T14:24:42;17.05;;;3.22;;
48881;SDS011;57063;51.406;-2.402;2023-04-24T14:27:07;8.73;;;3.75;;
48881;SDS011;57063;51.406;-2.402;2023-04-24T14:29:33;13.02;;;3.53;;
48881;SDS011;57063;51.406;-2.402;2023-04-24T14:31:58;10.13;;;3.45;;
48881;SDS011;57063;51.406;-2.402;2023-04-24T14:34:23;15.85;;;3.45;;
48881;SDS011;57063;51.406;-2.402;2023-04-24T14:36:49;11.68;;;4.03;;
48881;SDS011;57063;51.406;-2.402;2023-04-24T14:39:14;12.63;;;2.83;;
48881;SDS011;57063;51.406;-2.402;2023-04-24T14:41:39;17.20;;;3.55;;
48881;SDS011;57063;51.406;-2.402;2023-04-24T14:44:05;15.10;;;3.67;;
48881;SDS011;57063;51.406;-2.402;2023-04-24T14:46:31;14.88;;;4.78;;
48881;SDS011;57063;51.406;-2.402;2023-04-24T14:48:56;18.10;;;4.45;;